»·PEaware :: N248PT L52-KBFL

N248PT :: L52-KBFL

FLIGHT INFORMATION

Flight Status: Arrived
Operator: Privately registered:
United States
More flights under this callsign
Pilot: Joe C. (32102)
Aircraft: BEECH AIRCRAFT BONANZA
(BE36)
More flights by this aircraft type
Origin: L52 Oceano Co
United States
Destination: KBFL Meadows
United States
More flights between these airports :: More routes between these airports
Route: + AVILA V27 MQO V113 PRB V248 SCRAP
File this flight plan on PilotEdge
Remarks:
Altitude:
(Current/Filed)
9,000ft
Speed:
(Current/Filed)
160kts
Departed: 21-Oct-20 10:56 AM
Arrived: 21-Oct-20 11:50 AM
Distance/Time
Traveled:
80nm/0:54
Distance/Time
To Go:
Arrived

Flight Plot

Page will automatically refresh every two minutes.

Flight plan parsing failed; only flown route is shown


Map Options




Map Legend


Flown Route
Filed Route
Departure Airport
Arrival Airport
Navaid (VOR, NDB)
Fix

Horizontal Profiles

Position Reports

Time Latitude Longitude Heading Altitude Ground
Speed
21-Oct-20 10:39 35.102147 -120.622311 16 18ft 0kts
21-Oct-20 10:40 35.102147 -120.622311 16 18ft 0kts
21-Oct-20 10:41 35.102147 -120.622311 16 18ft 0kts
21-Oct-20 10:42 35.102147 -120.622311 16 18ft 0kts
21-Oct-20 10:43 35.102147 -120.622311 16 18ft 0kts
21-Oct-20 10:44 35.102147 -120.622311 16 18ft 0kts
21-Oct-20 10:45 35.102147 -120.622311 16 18ft 0kts
21-Oct-20 10:46 35.102147 -120.622311 16 18ft 0kts
21-Oct-20 10:47 35.102147 -120.622311 16 18ft 0kts
21-Oct-20 10:48 35.102147 -120.622311 16 18ft 0kts
21-Oct-20 10:49 35.102147 -120.622311 16 18ft 0kts
21-Oct-20 10:50 35.102147 -120.622311 16 18ft 0kts
21-Oct-20 10:51 35.102163 -120.622301 37 18ft 2kts
21-Oct-20 10:52 35.101952 -120.622258 195 17ft 0kts
21-Oct-20 10:53 35.101771 -120.622323 196 17ft 0kts
21-Oct-20 10:54 35.099705 -120.619852 121 16ft 7kts
21-Oct-20 10:55 35.104810 -120.628153 310 97ft 96kts
21-Oct-20 10:56 35.128502 -120.643708 353 1248ft 105kts
21-Oct-20 10:57 35.154303 -120.655985 333 2406ft 97kts
21-Oct-20 10:58 35.179893 -120.670734 316 3185ft 98kts
21-Oct-20 10:59 35.200522 -120.693691 318 3695ft 103kts
21-Oct-20 11:00 35.221914 -120.714719 315 4682ft 95kts
21-Oct-20 11:01 35.239469 -120.742132 311 5355ft 118kts
21-Oct-20 11:02 35.265217 -120.755426 16 6300ft 109kts
21-Oct-20 11:03 35.295415 -120.745681 11 7090ft 113kts
21-Oct-20 11:04 35.326225 -120.736105 15 7798ft 115kts
21-Oct-20 11:05 35.356532 -120.726890 16 8538ft 111kts
21-Oct-20 11:06 35.387446 -120.717102 15 8987ft 127kts
21-Oct-20 11:07 35.425024 -120.705270 15 8936ft 146kts
21-Oct-20 11:08 35.464107 -120.692967 15 9004ft 145kts
21-Oct-20 11:09 35.503479 -120.680558 15 8998ft 146kts
21-Oct-20 11:10 35.542721 -120.668158 15 8998ft 146kts
21-Oct-20 11:11 35.582122 -120.655712 15 8999ft 146kts
21-Oct-20 11:12 35.621616 -120.643218 15 8999ft 146kts
21-Oct-20 11:13 35.661017 -120.630739 15 9000ft 146kts
21-Oct-20 11:14 35.671168 -120.588614 92 8999ft 144kts
21-Oct-20 11:15 35.669220 -120.539083 92 8999ft 144kts
21-Oct-20 11:16 35.667360 -120.489701 92 8999ft 144kts
21-Oct-20 11:17 35.665481 -120.440209 92 9000ft 144kts
21-Oct-20 11:18 35.663583 -120.390851 92 9000ft 144kts
21-Oct-20 11:19 35.661668 -120.341377 92 8999ft 144kts
21-Oct-20 11:20 35.659732 -120.292055 92 8999ft 144kts
21-Oct-20 11:21 35.657780 -120.242775 92 9002ft 144kts
21-Oct-20 11:22 35.655889 -120.195463 92 8999ft 144kts
21-Oct-20 11:23 35.653800 -120.143793 92 9003ft 145kts
21-Oct-20 11:24 35.651765 -120.093943 92 8999ft 145kts
21-Oct-20 11:25 35.649711 -120.044269 92 8999ft 145kts
21-Oct-20 11:26 35.647657 -119.994789 92 8999ft 145kts
21-Oct-20 11:27 35.641167 -119.945558 102 9000ft 147kts
21-Oct-20 11:28 35.632093 -119.896182 102 8999ft 148kts
21-Oct-20 11:29 35.623115 -119.846652 102 9000ft 149kts
21-Oct-20 11:30 35.614015 -119.796589 102 8999ft 149kts
21-Oct-20 11:31 35.604992 -119.747089 102 9000ft 149kts
21-Oct-20 11:32 35.595860 -119.697072 102 9000ft 150kts
21-Oct-20 11:33 35.586670 -119.646855 102 9000ft 151kts
21-Oct-20 11:34 35.577426 -119.596525 102 9000ft 151kts
21-Oct-20 11:35 35.568170 -119.546179 102 9000ft 151kts
21-Oct-20 11:36 35.558905 -119.495955 102 9000ft 151kts
21-Oct-20 11:37 35.549561 -119.445431 102 8971ft 151kts
21-Oct-20 11:38 35.527502 -119.399218 123 8530ft 165kts
21-Oct-20 11:39 35.501785 -119.351586 123 7929ft 167kts
21-Oct-20 11:40 35.475644 -119.303090 123 7113ft 172kts
21-Oct-20 11:41 35.449367 -119.254283 123 6328ft 171kts
21-Oct-20 11:42 35.423104 -119.205455 123 5529ft 171kts
21-Oct-20 11:43 35.396849 -119.156728 123 4726ft 170kts
21-Oct-20 11:44 35.370369 -119.108595 123 3929ft 171kts
21-Oct-20 11:45 35.350437 -119.058281 71 3006ft 164kts
21-Oct-20 11:46 35.382543 -119.021594 27 2076ft 154kts
21-Oct-20 11:47 35.413535 -119.032134 318 992ft 100kts
21-Oct-20 11:48 35.429753 -119.051318 316 568ft 79kts
21-Oct-20 11:49 35.438278 -119.059700 96 494ft 0kts
21-Oct-20 11:50 35.438278 -119.059700 96 494ft 0kts
21-Oct-20 11:51 35.435834 -119.056346 135 493ft 34kts
21-Oct-20 11:52 35.429143 -119.048243 134 482ft 32kts
21-Oct-20 11:53 35.425188 -119.042246 226 473ft 0kts
21-Oct-20 11:54 35.425188 -119.042246 226 473ft 0kts
21-Oct-20 11:55 35.425188 -119.042246 226 473ft 0kts
21-Oct-20 11:56 35.425188 -119.042246 226 473ft 0kts
21-Oct-20 11:57 35.425188 -119.042246 226 473ft 0kts
21-Oct-20 11:59 35.425188 -119.042246 226 473ft 0kts
21-Oct-20 12:00 35.425188 -119.042246 226 473ft 0kts
21-Oct-20 12:01 35.425188 -119.042246 226 473ft 0kts
21-Oct-20 12:02 35.425188 -119.042246 226 473ft 0kts
21-Oct-20 12:03 35.425188 -119.042246 226 473ft 0kts
21-Oct-20 12:04 35.425188 -119.042246 226 473ft 0kts

Navigation Log

Ident Type
Flight plan parsing failed, navigation log unavailable